Bullsbrook Pearce, Western Australia

10:39 PM AWST on September 18, 2014 (GMT +0800)
Pearce (Military) | Change Station
CLOSE
Current Station
Airport
Location: Bullsbrook Pearce,
Elevation: 148 ft
Nearby Weather Stations

Elev 148 ft 31.67 °S, 116.02 °E | Updated 39 minutes ago

Scattered Clouds
Scattered Clouds
57 °F
Feels Like 57 °F
N
2
Wind Variable Wind from SW

Today
High -- | Low -- °F
--% Chance of Precip.
Yesterday
High -- | Low -- °F
Precip. -- in
6:11 AM 6:09 PM
Waning Crescent, 27% visible
Pressure 30.15 in
Visibility 6.2 miles
Clouds Scattered Clouds 2100 ft
Dew Point 54 °F
Humidity 88%
Rainfall 0.00 in
Snow Depth Not available.
UV 0 out of 12
Pollen Not available.
Air Quality Not available.
Flu Activity Not available.
METAR YPEA 181400Z 23002KT 9999 SCT021 14/12 Q1021 RMK USE TAF FOR ARRIVALS

More Conditions Fewer Conditions

Pressure 30.15 in
Visibility 6.2 miles
Clouds Scattered Clouds 2100 ft
Dew Point 54 °F
Humidity 88%
Rainfall 0.00 in
Snow Depth Not available.
UV 0 out of 12
Pollen Not available.
Air Quality Not available.
Flu Activity Not available.
METAR YPEA 181400Z 23002KT 9999 SCT021 14/12 Q1021 RMK USE TAF FOR ARRIVALS

More Conditions Fewer Conditions

10-Day Weather Forecast

Almanac

Astronomy

Sep. 18, 2014 Rise Set
Actual Time 6:11 AM AWST 6:09 PM AWST
Civil Twilight 5:47 AM AWST 6:33 PM AWST
Nautical Twilight 5:18 AM AWST 7:02 PM AWST
Astronomical Twilight 4:50 AM AWST 7:30 PM AWST
Moon 2:11 AM AWST 1:03 PM AWST
Length of Visible Light 12h 46m
Length of Day
11h 58m
Tomorrow will be 1m 55s longer.
Waning Crescent, 27% of the Moon is Illuminated
Today
Waning Crescent
Sep 24
New
Oct 1
First Quarter
Oct 8
Full
Oct 15
Last Quarter

Yesterday's Extremes

Country Highs Country Lows

Community

WunderPhotos

Upload Photos

1,754,355 photos uploaded!

Nearby

Snow Depth

Not available.

Earthquake Activity

City Distance Mag. Time & Date
No recent earthquake activity has been reported nearby.
Minimum magnitude displayed is 2.5.

Coastal Water Temperatures

Place Temperature
No Stations Reporting

Nearby Weather Stations